Time;durP1;ratioP1;P1;durP2;ratioP2;P2;SDS_P1;SDS_P2;PMS_P1;PMS_P2;Temp;Humidity;BMP_temperature;BMP_pressure;BME280_temperature;BME280_humidity;BME280_pressure;Samples;Min_cycle;Max_cycle;Signal;HPM_P1;HPM_P2
2021/11/25 00:07:16;;;;;;;34.05;16.10;;;2.50;99.90;;;;;;20745876;28;20030;-76
2021/11/25 01:02:47;;;;;;;42.25;15.50;;;2.30;99.90;;;;;;20754021;28;20042;-76
2021/11/25 01:12:50;;;;;;;46.40;17.60;;;2.20;99.90;;;;;;20749318;28;20526;-76
2021/11/25 01:22:53;;;;;;;39.50;17.38;;;2.10;99.90;;;;;;20751025;28;20519;-76
2021/11/25 01:32:54;;;;;;;44.67;16.35;;;2.10;99.90;;;;;;20750257;28;20042;-76
2021/11/25 01:42:55;;;;;;;47.53;18.15;;;2.10;99.90;;;;;;20749829;28;20065;-76
2021/11/25 01:52:56;;;;;;;43.35;17.17;;;2.00;99.90;;;;;;20749026;28;20029;-76
2021/11/25 02:02:59;;;;;;;39.50;16.95;;;2.00;99.90;;;;;;20748181;28;20044;-76
2021/11/25 02:13:00;;;;;;;43.05;16.80;;;1.90;99.90;;;;;;20747602;28;20488;-77
2021/11/25 02:23:02;;;;;;;36.15;15.73;;;1.90;99.90;;;;;;20747159;28;20033;-76
2021/11/25 02:33:03;;;;;;;38.67;16.55;;;1.90;99.90;;;;;;20754074;28;20392;-76
2021/11/25 02:43:08;;;;;;;43.67;18.73;;;1.90;99.90;;;;;;20744510;28;20053;-76
2021/11/25 02:53:09;;;;;;;49.80;18.50;;;1.80;99.90;;;;;;20744896;28;20041;-76
2021/11/25 03:03:12;;;;;;;49.35;18.73;;;1.70;99.90;;;;;;20744540;28;20095;-76
2021/11/25 03:13:15;;;;;;;44.63;18.65;;;1.70;99.90;;;;;;20742545;28;20040;-75
2021/11/25 03:23:18;;;;;;;54.10;20.08;;;1.70;99.90;;;;;;20742046;28;20034;-76
2021/11/25 03:33:19;;;;;;;47.70;18.48;;;1.80;99.90;;;;;;20741752;28;20034;-76
2021/11/25 03:43:20;;;;;;;50.03;18.40;;;1.70;99.90;;;;;;20750655;28;20084;-76
2021/11/25 03:53:21;;;;;;;45.50;18.25;;;1.80;99.90;;;;;;20758378;28;20026;-76
2021/11/25 04:03:24;;;;;;;45.67;18.80;;;1.80;99.90;;;;;;20757893;28;20042;-76
2021/11/25 04:13:25;;;;;;;40.70;16.95;;;1.70;99.90;;;;;;20756842;28;20123;-76
2021/11/25 04:23:26;;;;;;;42.20;17.02;;;1.70;99.90;;;;;;20756140;28;20033;-75
2021/11/25 04:43:46;;;;;;;45.05;18.30;;;1.70;99.90;;;;;;20688755;28;20088;-75
2021/11/25 04:53:47;;;;;;;56.83;19.73;;;1.70;99.90;;;;;;20671868;28;20556;-75
2021/11/25 05:03:47;;;;;;;51.67;19.70;;;1.80;99.90;;;;;;20686848;28;20469;-75
2021/11/25 05:13:48;;;;;;;48.30;20.80;;;1.90;99.90;;;;;;20671047;28;20495;-75
2021/11/25 05:23:49;;;;;;;51.53;20.52;;;2.00;99.90;;;;;;20670304;28;20022;-75
2021/11/25 05:33:50;;;;;;;55.08;21.77;;;2.20;99.90;;;;;;20669610;28;20030;-75
2021/11/25 05:43:51;;;;;;;56.47;21.38;;;2.30;99.90;;;;;;20668866;28;20050;-76
2021/11/25 05:53:52;;;;;;;59.17;21.92;;;2.30;99.90;;;;;;20692087;28;20041;-75
2021/11/25 06:03:54;;;;;;;59.65;21.30;;;2.00;99.90;;;;;;20708789;28;20045;-79
2021/11/25 06:13:54;;;;;;;53.28;21.00;;;1.90;99.90;;;;;;20698752;28;20480;-76
2021/11/25 06:23:55;;;;;;;51.67;20.30;;;1.90;99.90;;;;;;20715553;28;20034;-76
2021/11/25 06:33:56;;;;;;;55.97;19.30;;;1.80;99.90;;;;;;20702529;28;20396;-77
2021/11/25 06:43:57;;;;;;;50.70;19.67;;;1.70;99.90;;;;;;20698771;28;20112;-78
2021/11/25 06:53:58;;;;;;;57.83;20.20;;;1.60;99.90;;;;;;20693956;28;20026;-78
2021/11/25 07:03:59;;;;;;;57.75;18.27;;;1.60;99.90;;;;;;20665131;28;20607;-77
2021/11/25 07:14:00;;;;;;;47.53;18.15;;;1.60;99.90;;;;;;20662440;28;20053;-77
2021/11/25 07:24:01;;;;;;;49.22;18.67;;;1.60;99.90;;;;;;20663621;28;20061;-78
2021/11/25 07:34:02;;;;;;;49.13;18.95;;;1.60;99.90;;;;;;20665705;28;20037;-77
2021/11/25 07:44:03;;;;;;;47.92;17.92;;;1.80;99.90;;;;;;20664850;28;20039;-78
2021/11/25 07:54:08;;;;;;;47.92;17.70;;;1.70;99.90;;;;;;20666572;28;20058;-78
2021/11/25 08:04:09;;;;;;;45.45;17.63;;;1.70;99.90;;;;;;20665953;28;20038;-78
2021/11/25 08:14:10;;;;;;;50.25;17.92;;;1.70;99.90;;;;;;20666647;28;20030;-78
2021/11/25 08:24:11;;;;;;;55.35;20.10;;;1.60;99.90;;;;;;20668154;28;20037;-78
2021/11/25 08:34:12;;;;;;;56.63;18.88;;;1.60;99.90;;;;;;20680010;28;20030;-78
2021/11/25 08:44:13;;;;;;;59.70;20.17;;;1.60;99.90;;;;;;20682764;28;20034;-78
2021/11/25 08:54:13;;;;;;;49.40;18.88;;;1.90;99.90;;;;;;20680714;28;20034;-79
2021/11/25 09:04:14;;;;;;;50.83;18.83;;;2.00;99.90;;;;;;20681074;28;20154;-79
2021/11/25 09:14:16;;;;;;;51.85;18.35;;;2.20;99.90;;;;;;20676026;28;20117;-78
2021/11/25 09:24:18;;;;;;;52.13;20.00;;;2.20;99.90;;;;;;20675503;28;20062;-78
2021/11/25 09:34:18;;;;;;;50.40;19.95;;;2.40;99.90;;;;;;20676212;28;20034;-79
2021/11/25 09:44:19;;;;;;;41.78;17.45;;;2.50;99.90;;;;;;20676661;28;20110;-78
2021/11/25 09:54:21;;;;;;;47.15;19.42;;;2.70;99.90;;;;;;20676349;28;20042;-78
2021/11/25 10:04:21;;;;;;;46.22;17.17;;;2.60;99.90;;;;;;20673441;28;20039;-78
2021/11/25 10:14:37;;;;;;;49.95;19.92;;;2.40;99.90;;;;;;20674500;28;20416;-78
2021/11/25 10:24:44;;;;;;;46.50;17.17;;;2.40;99.90;;;;;;20688174;22;20018;-77
2021/11/25 10:45:14;;;;;;;47.47;18.67;;;2.20;99.90;;;;;;20746300;28;20041;-76
2021/11/25 10:55:15;;;;;;;47.80;18.90;;;2.70;99.90;;;;;;20748095;28;20033;-74
2021/11/25 11:05:21;;;;;;;48.45;19.13;;;2.80;99.90;;;;;;20743820;28;20032;-76
2021/11/25 11:15:27;;;;;;;45.08;17.60;;;2.70;99.90;;;;;;20744082;28;20037;-75
2021/11/25 11:25:33;;;;;;;49.58;18.25;;;2.70;99.90;;;;;;20743636;28;20038;-76
2021/11/25 11:35:34;;;;;;;51.83;17.77;;;2.80;99.90;;;;;;20725691;28;20389;-76
2021/11/25 11:45:38;;;;;;;39.80;16.00;;;2.60;99.90;;;;;;20742917;28;20087;-76
2021/11/25 11:55:48;;;;;;;48.85;16.38;;;2.60;99.90;;;;;;20742474;28;20068;-76
2021/11/25 12:05:51;;;;;;;34.72;13.27;;;2.70;99.90;;;;;;20775631;28;20391;-76
2021/11/25 12:16:20;;;;;;;37.75;15.10;;;2.90;99.90;;;;;;20839406;28;20167;-75
2021/11/25 12:26:21;;;;;;;29.27;12.43;;;3.00;99.90;;;;;;20787910;28;20084;-75
2021/11/25 12:36:40;;;;;;;28.08;12.35;;;3.00;99.90;;;;;;20755714;28;20057;-76
2021/11/25 12:46:41;;;;;;;29.35;13.00;;;3.10;99.90;;;;;;20754633;28;20044;-75
2021/11/25 12:56:42;;;;;;;38.35;15.68;;;2.80;99.90;;;;;;20753020;28;20116;-75
2021/11/25 13:06:49;;;;;;;50.38;17.40;;;2.70;99.90;;;;;;20759875;28;20500;-74
2021/11/25 13:16:56;;;;;;;53.45;19.10;;;2.80;99.90;;;;;;20752654;28;20104;-73
2021/11/25 13:27:18;;;;;;;52.95;21.80;;;2.80;99.90;;;;;;20755295;28;20026;-74
2021/11/25 13:37:27;;;;;;;59.17;23.15;;;2.80;99.90;;;;;;20754474;28;20061;-75
2021/11/25 13:47:31;;;;;;;69.55;22.70;;;2.50;99.90;;;;;;20734366;28;20715;-75
2021/11/25 13:57:32;;;;;;;82.50;24.52;;;2.40;99.90;;;;;;20718507;28;20030;-76
2021/11/25 14:07:34;;;;;;;69.50;23.15;;;2.10;99.90;;;;;;20716012;28;20030;-75
2021/11/25 14:17:43;;;;;;;77.95;24.13;;;2.10;99.90;;;;;;20714671;28;20037;-77
2021/11/25 14:38:07;;;;;;;85.50;25.05;;;1.80;99.90;;;;;;20710400;28;20111;-74
2021/11/25 14:48:39;;;;;;;81.05;25.35;;;1.60;99.90;;;;;;20709818;28;20366;-76
2021/11/25 14:59:06;;;;;;;81.88;26.67;;;1.50;99.90;;;;;;20708012;28;20133;-75
2021/11/25 15:09:20;;;;;;;79.25;25.48;;;1.30;99.90;;;;;;20704489;28;20037;-75
2021/11/25 15:19:21;;;;;;;78.00;26.25;;;1.30;99.90;;;;;;20707223;28;20040;-76
2021/11/25 15:29:22;;;;;;;86.65;26.27;;;1.20;99.90;;;;;;20705952;28;20022;-75
2021/11/25 15:39:22;;;;;;;92.10;28.23;;;1.00;99.90;;;;;;20731279;28;20045;-78
2021/11/25 15:49:23;;;;;;;92.47;27.20;;;1.00;99.90;;;;;;20729208;28;20628;-77
2021/11/25 15:59:24;;;;;;;92.63;28.50;;;0.90;99.90;;;;;;20727576;28;20036;-77
2021/11/25 16:09:25;;;;;;;103.03;27.92;;;0.80;99.90;;;;;;20719502;28;20492;-76
2021/11/25 16:19:26;;;;;;;89.13;24.15;;;0.80;99.90;;;;;;20722019;28;20403;-76
2021/11/25 16:29:28;;;;;;;86.22;25.25;;;0.70;99.90;;;;;;20720545;28;20123;-75
2021/11/25 16:39:29;;;;;;;94.90;25.88;;;0.70;99.90;;;;;;20718668;28;20046;-76
2021/11/25 16:49:36;;;;;;;79.97;24.67;;;0.70;99.90;;;;;;20716687;28;20044;-74
2021/11/25 16:59:42;;;;;;;85.75;24.80;;;0.60;99.90;;;;;;20716961;28;20427;-73
2021/11/25 17:09:44;;;;;;;81.05;23.55;;;0.50;99.90;;;;;;20714872;28;20045;-75
2021/11/25 17:19:45;;;;;;;76.30;23.27;;;0.50;99.90;;;;;;20715232;28;20030;-74
2021/11/25 17:29:46;;;;;;;68.75;21.17;;;0.40;99.90;;;;;;20714364;28;20492;-76
2021/11/25 17:39:47;;;;;;;63.05;19.75;;;0.40;99.90;;;;;;20714117;28;20515;-76
2021/11/25 17:49:48;;;;;;;64.75;18.38;;;0.50;99.90;;;;;;20712787;28;20033;-74
2021/11/25 17:59:50;;;;;;;65.40;17.95;;;0.50;99.90;;;;;;20712710;28;20388;-73
2021/11/25 18:09:51;;;;;;;65.70;17.80;;;0.50;99.90;;;;;;20722668;28;20030;-77
2021/11/25 18:19:52;;;;;;;62.17;19.13;;;0.40;99.90;;;;;;20713155;28;20041;-76
2021/11/25 18:29:53;;;;;;;63.95;20.17;;;0.40;99.90;;;;;;20711726;28;20025;-73
2021/11/25 18:39:57;;;;;;;66.63;21.70;;;0.40;99.90;;;;;;20713440;28;20036;-76
2021/11/25 18:50:04;;;;;;;76.45;21.30;;;0.40;99.90;;;;;;20712896;28;20033;-73
2021/11/25 19:00:06;;;;;;;79.03;22.70;;;0.40;99.90;;;;;;20709849;28;20033;-75
2021/11/25 19:10:08;;;;;;;69.25;21.73;;;0.40;99.90;;;;;;20708755;28;20053;-75
2021/11/25 19:20:09;;;;;;;85.53;21.63;;;0.40;99.90;;;;;;20707996;28;20034;-75
2021/11/25 19:30:11;;;;;;;71.47;18.90;;;0.40;99.90;;;;;;20749317;28;20036;-75
2021/11/25 19:40:16;;;;;;;67.75;19.50;;;0.50;99.90;;;;;;20782825;28;20084;-75
2021/11/25 19:50:18;;;;;;;70.60;19.55;;;0.50;99.90;;;;;;20781475;28;20030;-74
2021/11/25 20:00:21;;;;;;;64.03;19.88;;;0.40;99.90;;;;;;20781659;28;20029;-75
2021/11/25 20:10:23;;;;;;;85.40;20.95;;;0.40;99.90;;;;;;20820666;28;20069;-76
2021/11/25 20:20:26;;;;;;;79.93;23.63;;;0.50;99.90;;;;;;20823612;28;20369;-76
2021/11/25 20:30:28;;;;;;;103.57;26.60;;;0.40;99.90;;;;;;20836776;28;20743;-76
2021/11/25 20:40:30;;;;;;;101.43;26.63;;;0.40;99.90;;;;;;20836481;28;20433;-77
2021/11/25 20:50:31;;;;;;;102.50;26.05;;;0.40;99.90;;;;;;20848526;28;20033;-75
2021/11/25 21:00:32;;;;;;;98.90;27.33;;;0.40;99.90;;;;;;20837477;28;20487;-75
2021/11/25 21:10:35;;;;;;;124.97;29.65;;;0.40;99.90;;;;;;20838019;28;20029;-75
2021/11/25 21:20:36;;;;;;;139.50;32.40;;;0.40;99.90;;;;;;20834646;28;20572;-75
2021/11/25 21:30:37;;;;;;;123.03;29.27;;;0.30;99.90;;;;;;20832709;28;20053;-75
2021/11/25 21:40:38;;;;;;;122.53;30.98;;;0.30;99.90;;;;;;20831837;28;20037;-75
2021/11/25 21:50:38;;;;;;;138.10;32.42;;;0.30;99.90;;;;;;20831512;28;20033;-75
2021/11/25 22:00:39;;;;;;;171.65;38.20;;;0.30;99.90;;;;;;20830577;28;20037;-74
2021/11/25 22:10:41;;;;;;;168.60;34.67;;;0.30;99.90;;;;;;20830194;28;20037;-74
2021/11/25 22:20:49;;;;;;;184.18;36.40;;;0.30;99.90;;;;;;20829266;28;20029;-76
2021/11/25 22:30:49;;;;;;;191.25;38.60;;;0.20;99.90;;;;;;20829014;28;20037;-74
2021/11/25 22:40:52;;;;;;;155.15;35.85;;;0.20;99.90;;;;;;20826684;28;20381;-76
2021/11/25 22:50:53;;;;;;;187.85;36.70;;;0.20;99.90;;;;;;20826364;28;20061;-75
2021/11/25 23:00:54;;;;;;;188.63;39.10;;;0.20;99.90;;;;;;20826273;28;20052;-74
2021/11/25 23:10:55;;;;;;;203.43;39.90;;;0.20;99.90;;;;;;20825558;28;20048;-74
2021/11/25 23:20:57;;;;;;;196.70;42.40;;;0.20;99.90;;;;;;20824017;28;20087;-74
2021/11/25 23:30:58;;;;;;;216.20;42.72;;;0.20;99.90;;;;;;20824653;28;20556;-75
2021/11/25 23:40:58;;;;;;;243.23;39.83;;;0.20;99.90;;;;;;20823377;28;20115;-75
